Terminal Aerodrome Forecast
Issued by NWS Louisville, KY

Home | Current Version | Previous Version | Text Only | Print | Product List | Glossary On
Versions: 1 2 3 4 5 6 7 8 9 10 11 12 13 14 15 16 17 18 19 20
780
FTUS43 KLMK 011008 AAA
TAFBWG
TAF AMD
KBWG 011008Z 0110/0206 19003KT P6SM BKN050 BKN100
     FM011500 23007KT P6SM SCT025 BKN035 PROB30 0119/0123 5SM TSRA
      BKN030CB=

USA.gov is the U.S. government's official web portal to all federal, state and local government web resources and services.